createdAt,value
2017-09-12T19:06:56.208Z,84.80
2017-09-12T19:09:24.651Z,77.90
2017-09-12T19:11:53.049Z,72.40
2017-09-12T19:14:21.279Z,68.70
2017-09-12T19:16:49.709Z,66.10
2017-09-12T19:19:18.142Z,64.10
2017-09-12T19:21:46.585Z,62.30
2017-09-12T19:24:14.682Z,61.20
2017-09-12T19:26:43.794Z,60.00
2017-09-12T19:29:12.273Z,59.10
2017-09-12T19:31:40.675Z,58.50
2017-09-12T19:34:09.836Z,57.50
2017-09-12T19:36:37.912Z,57.50
2017-09-12T19:39:06.604Z,57.10
2017-09-12T19:41:35.028Z,56.90
2017-09-12T19:44:03.168Z,56.70
2017-09-12T19:46:32.891Z,56.30
2017-09-12T19:49:02.097Z,56.00
2017-09-12T19:51:30.545Z,56.00
2017-09-12T19:53:59.737Z,56.00
2017-09-12T19:56:28.178Z,56.00
2017-09-12T19:58:56.618Z,55.60
2017-09-12T20:01:25.045Z,55.50
2017-09-12T20:03:53.445Z,55.40
2017-09-12T20:06:21.864Z,55.30
2017-09-12T20:08:50.306Z,55.20
2017-09-12T20:11:19.464Z,55.20
2017-09-12T20:13:47.890Z,55.20
2017-09-12T20:16:15.939Z,54.80
2017-09-12T20:18:44.343Z,55.00
2017-09-12T20:21:12.764Z,55.20
2017-09-12T20:23:41.164Z,55.40
2017-09-12T20:26:09.384Z,55.50
2017-09-12T20:28:37.461Z,55.60
2017-09-12T20:31:05.864Z,55.70
2017-09-12T20:33:35.069Z,55.90
2017-09-12T20:36:03.521Z,55.90
2017-09-12T20:38:32.495Z,56.00
2017-09-12T20:41:00.908Z,56.00
2017-09-12T20:43:29.370Z,56.10
2017-09-12T20:45:57.764Z,56.10
2017-09-12T20:48:26.201Z,56.20
2017-09-12T20:50:54.612Z,56.30
2017-09-12T20:53:23.814Z,56.30
2017-09-12T20:55:51.864Z,56.30
2017-09-12T20:58:20.317Z,56.40
2017-09-12T21:00:48.750Z,56.40
2017-09-12T21:03:17.190Z,56.30
2017-09-12T21:05:46.622Z,55.50
2017-09-12T21:08:15.817Z,55.40
2017-09-12T21:10:44.212Z,55.40
2017-09-12T21:13:12.632Z,55.30
2017-09-12T21:15:41.795Z,54.90
2017-09-12T21:18:10.234Z,54.90
2017-09-12T21:20:38.690Z,54.60
2017-09-12T21:23:07.080Z,54.30
2017-09-12T21:25:35.480Z,54.40
2017-09-12T21:28:03.904Z,54.60
2017-09-12T21:30:31.814Z,54.80
2017-09-12T21:33:00.211Z,55.10
2017-09-12T21:35:29.426Z,54.10
2017-09-12T21:37:58.435Z,53.80
